sensor_id;sensor_type;location;lat;lon;timestamp;temperature;humidity
20068;DHT22;10194;50.824;7.134;2024-01-16T00:01:43;1.80;99.90
20068;DHT22;10194;50.824;7.134;2024-01-16T00:04:10;1.80;99.90
20068;DHT22;10194;50.824;7.134;2024-01-16T00:06:40;1.80;99.90
20068;DHT22;10194;50.824;7.134;2024-01-16T00:09:06;1.80;99.90
20068;DHT22;10194;50.824;7.134;2024-01-16T00:11:32;1.80;99.90
20068;DHT22;10194;50.824;7.134;2024-01-16T00:13:58;1.80;99.90
20068;DHT22;10194;50.824;7.134;2024-01-16T00:16:24;1.80;99.90
20068;DHT22;10194;50.824;7.134;2024-01-16T00:18:50;1.80;99.90
20068;DHT22;10194;50.824;7.134;2024-01-16T00:21:16;1.80;99.90
20068;DHT22;10194;50.824;7.134;2024-01-16T00:23:41;1.80;99.90
20068;DHT22;10194;50.824;7.134;2024-01-16T00:26:07;1.80;99.90
20068;DHT22;10194;50.824;7.134;2024-01-16T00:28:33;1.80;99.90
20068;DHT22;10194;50.824;7.134;2024-01-16T00:30:59;1.80;99.90
20068;DHT22;10194;50.824;7.134;2024-01-16T00:33:24;1.80;99.90
20068;DHT22;10194;50.824;7.134;2024-01-16T00:35:52;1.80;99.90
20068;DHT22;10194;50.824;7.134;2024-01-16T00:38:18;1.80;99.90
20068;DHT22;10194;50.824;7.134;2024-01-16T00:40:44;1.80;99.90
20068;DHT22;10194;50.824;7.134;2024-01-16T00:43:09;1.80;99.90
20068;DHT22;10194;50.824;7.134;2024-01-16T00:45:35;1.80;99.90
20068;DHT22;10194;50.824;7.134;2024-01-16T00:48:01;1.80;99.90
20068;DHT22;10194;50.824;7.134;2024-01-16T00:50:27;1.80;99.90
20068;DHT22;10194;50.824;7.134;2024-01-16T00:52:55;1.80;99.90
20068;DHT22;10194;50.824;7.134;2024-01-16T00:55:20;1.80;99.90
20068;DHT22;10194;50.824;7.134;2024-01-16T00:57:46;1.80;99.90
20068;DHT22;10194;50.824;7.134;2024-01-16T01:00:12;1.80;99.90
20068;DHT22;10194;50.824;7.134;2024-01-16T01:02:38;1.70;99.90
20068;DHT22;10194;50.824;7.134;2024-01-16T01:05:04;1.70;99.90
20068;DHT22;10194;50.824;7.134;2024-01-16T01:07:30;1.70;99.90
20068;DHT22;10194;50.824;7.134;2024-01-16T01:09:55;1.70;99.90
20068;DHT22;10194;50.824;7.134;2024-01-16T01:12:21;1.70;99.90
20068;DHT22;10194;50.824;7.134;2024-01-16T01:14:48;1.70;99.90
20068;DHT22;10194;50.824;7.134;2024-01-16T01:17:14;1.70;99.90
20068;DHT22;10194;50.824;7.134;2024-01-16T01:19:39;1.70;99.90
20068;DHT22;10194;50.824;7.134;2024-01-16T01:22:05;1.80;99.90
20068;DHT22;10194;50.824;7.134;2024-01-16T01:24:31;1.70;99.90
20068;DHT22;10194;50.824;7.134;2024-01-16T01:26:57;1.70;99.90
20068;DHT22;10194;50.824;7.134;2024-01-16T01:29:23;1.70;99.90
20068;DHT22;10194;50.824;7.134;2024-01-16T01:31:49;1.70;99.90
20068;DHT22;10194;50.824;7.134;2024-01-16T01:34:15;1.70;99.90
20068;DHT22;10194;50.824;7.134;2024-01-16T01:36:40;1.70;99.90
20068;DHT22;10194;50.824;7.134;2024-01-16T01:39:06;1.70;99.90
20068;DHT22;10194;50.824;7.134;2024-01-16T01:41:32;1.70;99.90
20068;DHT22;10194;50.824;7.134;2024-01-16T01:43:58;1.70;99.90
20068;DHT22;10194;50.824;7.134;2024-01-16T01:46:24;1.70;99.90
20068;DHT22;10194;50.824;7.134;2024-01-16T01:48:50;1.70;99.90
20068;DHT22;10194;50.824;7.134;2024-01-16T01:51:19;1.70;99.90
20068;DHT22;10194;50.824;7.134;2024-01-16T01:53:47;1.70;99.90
20068;DHT22;10194;50.824;7.134;2024-01-16T01:56:18;1.70;99.90
20068;DHT22;10194;50.824;7.134;2024-01-16T01:58:47;1.60;99.90
20068;DHT22;10194;50.824;7.134;2024-01-16T02:01:14;1.60;99.90
20068;DHT22;10194;50.824;7.134;2024-01-16T02:03:44;1.60;99.90
20068;DHT22;10194;50.824;7.134;2024-01-16T02:06:11;1.60;99.90
20068;DHT22;10194;50.824;7.134;2024-01-16T02:08:41;1.60;99.90
20068;DHT22;10194;50.824;7.134;2024-01-16T02:11:08;1.60;99.90
20068;DHT22;10194;50.824;7.134;2024-01-16T02:13:35;1.60;99.90
20068;DHT22;10194;50.824;7.134;2024-01-16T02:16:01;1.50;99.90
20068;DHT22;10194;50.824;7.134;2024-01-16T02:18:27;1.60;99.90
20068;DHT22;10194;50.824;7.134;2024-01-16T02:20:53;1.50;99.90
20068;DHT22;10194;50.824;7.134;2024-01-16T02:23:30;1.50;99.90
20068;DHT22;10194;50.824;7.134;2024-01-16T02:25:57;1.40;99.90
20068;DHT22;10194;50.824;7.134;2024-01-16T02:28:23;1.30;99.90
20068;DHT22;10194;50.824;7.134;2024-01-16T02:30:48;1.30;99.90
20068;DHT22;10194;50.824;7.134;2024-01-16T02:33:14;1.30;99.90
20068;DHT22;10194;50.824;7.134;2024-01-16T02:35:40;1.30;99.90
20068;DHT22;10194;50.824;7.134;2024-01-16T02:38:06;1.30;99.90
20068;DHT22;10194;50.824;7.134;2024-01-16T02:40:31;1.30;99.90
20068;DHT22;10194;50.824;7.134;2024-01-16T02:42:57;1.30;99.90
20068;DHT22;10194;50.824;7.134;2024-01-16T02:45:23;1.30;99.90
20068;DHT22;10194;50.824;7.134;2024-01-16T02:47:49;1.30;99.90
20068;DHT22;10194;50.824;7.134;2024-01-16T02:50:15;1.30;99.90
20068;DHT22;10194;50.824;7.134;2024-01-16T02:52:42;1.30;99.90
20068;DHT22;10194;50.824;7.134;2024-01-16T02:55:08;1.30;99.90
20068;DHT22;10194;50.824;7.134;2024-01-16T02:57:34;1.30;99.90
20068;DHT22;10194;50.824;7.134;2024-01-16T03:00:00;1.30;99.90
20068;DHT22;10194;50.824;7.134;2024-01-16T03:02:26;1.30;99.90
20068;DHT22;10194;50.824;7.134;2024-01-16T03:04:52;1.40;99.90
20068;DHT22;10194;50.824;7.134;2024-01-16T03:07:18;1.40;99.90
20068;DHT22;10194;50.824;7.134;2024-01-16T03:09:44;1.40;99.90
20068;DHT22;10194;50.824;7.134;2024-01-16T03:12:10;1.40;99.90
20068;DHT22;10194;50.824;7.134;2024-01-16T03:14:36;1.40;99.90
20068;DHT22;10194;50.824;7.134;2024-01-16T03:17:04;1.50;99.90
20068;DHT22;10194;50.824;7.134;2024-01-16T03:19:30;1.50;99.90
20068;DHT22;10194;50.824;7.134;2024-01-16T03:21:56;1.50;99.90
20068;DHT22;10194;50.824;7.134;2024-01-16T03:24:21;1.50;99.90
20068;DHT22;10194;50.824;7.134;2024-01-16T03:26:47;1.50;99.90
20068;DHT22;10194;50.824;7.134;2024-01-16T03:29:13;1.50;99.90
20068;DHT22;10194;50.824;7.134;2024-01-16T03:31:39;1.50;99.90
20068;DHT22;10194;50.824;7.134;2024-01-16T03:34:05;1.50;99.90
20068;DHT22;10194;50.824;7.134;2024-01-16T03:36:30;1.50;99.90
20068;DHT22;10194;50.824;7.134;2024-01-16T03:38:56;1.50;99.90
20068;DHT22;10194;50.824;7.134;2024-01-16T03:41:22;1.50;99.90
20068;DHT22;10194;50.824;7.134;2024-01-16T03:43:48;1.50;99.90
20068;DHT22;10194;50.824;7.134;2024-01-16T03:46:14;1.50;99.90
20068;DHT22;10194;50.824;7.134;2024-01-16T03:48:39;1.40;99.90
20068;DHT22;10194;50.824;7.134;2024-01-16T03:51:05;1.40;99.90
20068;DHT22;10194;50.824;7.134;2024-01-16T03:53:32;1.50;99.90
20068;DHT22;10194;50.824;7.134;2024-01-16T03:55:58;1.40;99.90
20068;DHT22;10194;50.824;7.134;2024-01-16T03:58:24;1.40;99.90
20068;DHT22;10194;50.824;7.134;2024-01-16T04:00:49;1.40;99.90
20068;DHT22;10194;50.824;7.134;2024-01-16T04:03:17;1.40;99.90
20068;DHT22;10194;50.824;7.134;2024-01-16T04:05:43;1.40;99.90
20068;DHT22;10194;50.824;7.134;2024-01-16T04:08:08;1.40;99.90
20068;DHT22;10194;50.824;7.134;2024-01-16T04:10:34;1.40;99.90
20068;DHT22;10194;50.824;7.134;2024-01-16T04:13:01;1.40;99.90
20068;DHT22;10194;50.824;7.134;2024-01-16T04:15:27;1.40;99.90
20068;DHT22;10194;50.824;7.134;2024-01-16T04:17:54;1.30;99.90
20068;DHT22;10194;50.824;7.134;2024-01-16T04:20:20;1.40;99.90
20068;DHT22;10194;50.824;7.134;2024-01-16T04:22:46;1.30;99.90
20068;DHT22;10194;50.824;7.134;2024-01-16T04:25:12;1.40;99.90
20068;DHT22;10194;50.824;7.134;2024-01-16T04:27:38;1.40;99.90
20068;DHT22;10194;50.824;7.134;2024-01-16T04:30:04;1.30;99.90
20068;DHT22;10194;50.824;7.134;2024-01-16T04:32:31;1.30;99.90
20068;DHT22;10194;50.824;7.134;2024-01-16T04:34:57;1.20;99.90
20068;DHT22;10194;50.824;7.134;2024-01-16T04:37:23;1.20;99.90
20068;DHT22;10194;50.824;7.134;2024-01-16T04:39:49;1.20;99.90
20068;DHT22;10194;50.824;7.134;2024-01-16T04:42:15;1.20;99.90
20068;DHT22;10194;50.824;7.134;2024-01-16T04:44:43;1.20;99.90
20068;DHT22;10194;50.824;7.134;2024-01-16T04:47:09;1.20;99.90
20068;DHT22;10194;50.824;7.134;2024-01-16T04:49:35;1.20;99.90
20068;DHT22;10194;50.824;7.134;2024-01-16T04:52:01;1.20;99.90
20068;DHT22;10194;50.824;7.134;2024-01-16T04:54:28;1.20;99.90
20068;DHT22;10194;50.824;7.134;2024-01-16T04:56:53;1.20;99.90
20068;DHT22;10194;50.824;7.134;2024-01-16T04:59:19;1.20;99.90
20068;DHT22;10194;50.824;7.134;2024-01-16T05:01:45;1.20;99.90
20068;DHT22;10194;50.824;7.134;2024-01-16T05:04:11;1.20;99.90
20068;DHT22;10194;50.824;7.134;2024-01-16T05:06:37;1.20;99.90
20068;DHT22;10194;50.824;7.134;2024-01-16T05:09:03;1.10;99.90
20068;DHT22;10194;50.824;7.134;2024-01-16T05:11:28;1.20;99.90
20068;DHT22;10194;50.824;7.134;2024-01-16T05:13:54;1.20;99.90
20068;DHT22;10194;50.824;7.134;2024-01-16T05:16:26;1.20;99.90
20068;DHT22;10194;50.824;7.134;2024-01-16T05:18:53;1.20;99.90
20068;DHT22;10194;50.824;7.134;2024-01-16T05:21:19;1.10;99.90
20068;DHT22;10194;50.824;7.134;2024-01-16T05:23:46;1.20;99.90
20068;DHT22;10194;50.824;7.134;2024-01-16T05:26:12;1.10;99.90
20068;DHT22;10194;50.824;7.134;2024-01-16T05:28:38;1.10;99.90
20068;DHT22;10194;50.824;7.134;2024-01-16T05:31:04;1.10;99.90
20068;DHT22;10194;50.824;7.134;2024-01-16T05:33:30;1.10;99.90
20068;DHT22;10194;50.824;7.134;2024-01-16T05:35:57;1.00;99.90
20068;DHT22;10194;50.824;7.134;2024-01-16T05:38:23;1.10;99.90
20068;DHT22;10194;50.824;7.134;2024-01-16T05:40:49;1.10;99.90
20068;DHT22;10194;50.824;7.134;2024-01-16T05:43:14;1.10;99.90
20068;DHT22;10194;50.824;7.134;2024-01-16T05:45:40;1.10;99.90
20068;DHT22;10194;50.824;7.134;2024-01-16T05:48:06;1.10;99.90
20068;DHT22;10194;50.824;7.134;2024-01-16T05:50:37;1.10;99.90
20068;DHT22;10194;50.824;7.134;2024-01-16T05:53:02;1.10;99.90
20068;DHT22;10194;50.824;7.134;2024-01-16T05:55:29;1.10;99.90
20068;DHT22;10194;50.824;7.134;2024-01-16T05:57:58;1.10;99.90
20068;DHT22;10194;50.824;7.134;2024-01-16T06:00:26;1.10;99.90
20068;DHT22;10194;50.824;7.134;2024-01-16T06:02:52;1.10;99.90
20068;DHT22;10194;50.824;7.134;2024-01-16T06:05:17;1.20;99.90
20068;DHT22;10194;50.824;7.134;2024-01-16T06:07:43;1.20;99.90
20068;DHT22;10194;50.824;7.134;2024-01-16T06:10:14;1.10;99.90
20068;DHT22;10194;50.824;7.134;2024-01-16T06:12:40;1.10;99.90
20068;DHT22;10194;50.824;7.134;2024-01-16T06:15:06;1.10;99.90
20068;DHT22;10194;50.824;7.134;2024-01-16T06:17:32;1.10;99.90
20068;DHT22;10194;50.824;7.134;2024-01-16T06:19:58;1.10;99.90
20068;DHT22;10194;50.824;7.134;2024-01-16T06:22:24;1.20;99.90
20068;DHT22;10194;50.824;7.134;2024-01-16T06:24:50;1.20;99.90
20068;DHT22;10194;50.824;7.134;2024-01-16T06:27:15;1.20;99.90
20068;DHT22;10194;50.824;7.134;2024-01-16T06:29:48;1.20;99.90
20068;DHT22;10194;50.824;7.134;2024-01-16T06:32:14;1.20;99.90
20068;DHT22;10194;50.824;7.134;2024-01-16T06:34:40;1.20;99.90
20068;DHT22;10194;50.824;7.134;2024-01-16T06:37:06;1.20;99.90
20068;DHT22;10194;50.824;7.134;2024-01-16T06:39:31;1.20;99.90
20068;DHT22;10194;50.824;7.134;2024-01-16T06:41:58;1.20;99.90
20068;DHT22;10194;50.824;7.134;2024-01-16T06:44:24;1.20;99.90
20068;DHT22;10194;50.824;7.134;2024-01-16T06:46:50;1.20;99.90
20068;DHT22;10194;50.824;7.134;2024-01-16T06:49:16;1.20;99.90
20068;DHT22;10194;50.824;7.134;2024-01-16T06:51:41;1.20;99.90
20068;DHT22;10194;50.824;7.134;2024-01-16T06:54:07;1.30;99.90
20068;DHT22;10194;50.824;7.134;2024-01-16T06:56:33;1.20;99.90
20068;DHT22;10194;50.824;7.134;2024-01-16T06:58:59;1.20;99.90
20068;DHT22;10194;50.824;7.134;2024-01-16T07:01:24;1.20;99.90
20068;DHT22;10194;50.824;7.134;2024-01-16T07:03:50;1.30;99.90
20068;DHT22;10194;50.824;7.134;2024-01-16T07:06:18;1.20;99.90
20068;DHT22;10194;50.824;7.134;2024-01-16T07:08:43;1.20;99.90
20068;DHT22;10194;50.824;7.134;2024-01-16T07:11:09;1.20;99.90
20068;DHT22;10194;50.824;7.134;2024-01-16T07:13:39;1.20;99.90
20068;DHT22;10194;50.824;7.134;2024-01-16T07:16:06;1.20;99.90
20068;DHT22;10194;50.824;7.134;2024-01-16T07:18:34;1.20;99.90
20068;DHT22;10194;50.824;7.134;2024-01-16T07:21:00;1.20;99.90
20068;DHT22;10194;50.824;7.134;2024-01-16T07:23:26;1.20;99.90
20068;DHT22;10194;50.824;7.134;2024-01-16T07:25:52;1.20;99.90
20068;DHT22;10194;50.824;7.134;2024-01-16T07:28:18;1.20;99.90
20068;DHT22;10194;50.824;7.134;2024-01-16T07:30:44;1.20;99.90
20068;DHT22;10194;50.824;7.134;2024-01-16T07:33:10;1.20;99.90
20068;DHT22;10194;50.824;7.134;2024-01-16T07:35:36;1.20;99.90
20068;DHT22;10194;50.824;7.134;2024-01-16T07:38:04;1.20;99.90
20068;DHT22;10194;50.824;7.134;2024-01-16T07:40:29;1.20;99.90
20068;DHT22;10194;50.824;7.134;2024-01-16T07:42:55;1.20;99.90
20068;DHT22;10194;50.824;7.134;2024-01-16T07:45:21;1.20;99.90
20068;DHT22;10194;50.824;7.134;2024-01-16T07:47:47;1.20;99.90
20068;DHT22;10194;50.824;7.134;2024-01-16T07:50:13;1.10;99.90
20068;DHT22;10194;50.824;7.134;2024-01-16T07:52:39;1.10;99.90
20068;DHT22;10194;50.824;7.134;2024-01-16T07:55:05;1.10;99.90
20068;DHT22;10194;50.824;7.134;2024-01-16T07:57:31;1.10;99.90
20068;DHT22;10194;50.824;7.134;2024-01-16T07:59:56;1.10;99.90
20068;DHT22;10194;50.824;7.134;2024-01-16T08:04:55;1.10;99.90
20068;DHT22;10194;50.824;7.134;2024-01-16T08:07:21;1.00;99.90
20068;DHT22;10194;50.824;7.134;2024-01-16T08:09:47;1.00;99.90
20068;DHT22;10194;50.824;7.134;2024-01-16T08:12:13;1.00;99.90
20068;DHT22;10194;50.824;7.134;2024-01-16T08:14:39;1.10;99.90
20068;DHT22;10194;50.824;7.134;2024-01-16T08:17:05;1.00;99.90
20068;DHT22;10194;50.824;7.134;2024-01-16T08:19:32;1.00;99.90
20068;DHT22;10194;50.824;7.134;2024-01-16T08:21:58;1.00;99.90
20068;DHT22;10194;50.824;7.134;2024-01-16T08:24:23;1.10;99.90
20068;DHT22;10194;50.824;7.134;2024-01-16T08:26:49;1.00;99.90
20068;DHT22;10194;50.824;7.134;2024-01-16T08:29:15;1.00;99.90
20068;DHT22;10194;50.824;7.134;2024-01-16T08:31:41;1.00;99.90
20068;DHT22;10194;50.824;7.134;2024-01-16T08:34:10;1.00;99.90
20068;DHT22;10194;50.824;7.134;2024-01-16T08:36:36;1.00;99.90
20068;DHT22;10194;50.824;7.134;2024-01-16T08:39:02;1.10;99.90
20068;DHT22;10194;50.824;7.134;2024-01-16T08:41:28;1.10;99.90
20068;DHT22;10194;50.824;7.134;2024-01-16T08:43:54;1.20;99.90
20068;DHT22;10194;50.824;7.134;2024-01-16T08:46:20;1.20;99.90
20068;DHT22;10194;50.824;7.134;2024-01-16T08:48:46;1.20;99.90
20068;DHT22;10194;50.824;7.134;2024-01-16T08:51:12;1.20;99.90
20068;DHT22;10194;50.824;7.134;2024-01-16T08:53:39;1.30;99.90
20068;DHT22;10194;50.824;7.134;2024-01-16T08:56:05;1.20;99.90
20068;DHT22;10194;50.824;7.134;2024-01-16T08:58:32;1.30;99.90
20068;DHT22;10194;50.824;7.134;2024-01-16T09:01:04;1.30;99.90
20068;DHT22;10194;50.824;7.134;2024-01-16T09:03:36;1.30;99.90
20068;DHT22;10194;50.824;7.134;2024-01-16T09:06:02;1.30;99.90
20068;DHT22;10194;50.824;7.134;2024-01-16T09:08:28;1.30;99.90
20068;DHT22;10194;50.824;7.134;2024-01-16T09:10:54;1.30;99.90
20068;DHT22;10194;50.824;7.134;2024-01-16T09:13:21;1.30;99.90
20068;DHT22;10194;50.824;7.134;2024-01-16T09:15:49;1.20;99.90
20068;DHT22;10194;50.824;7.134;2024-01-16T09:18:17;1.30;99.90
20068;DHT22;10194;50.824;7.134;2024-01-16T09:20:43;1.40;99.90
20068;DHT22;10194;50.824;7.134;2024-01-16T09:23:09;1.40;99.90
20068;DHT22;10194;50.824;7.134;2024-01-16T09:25:35;1.40;99.90
20068;DHT22;10194;50.824;7.134;2024-01-16T09:28:02;1.40;99.90
20068;DHT22;10194;50.824;7.134;2024-01-16T09:30:28;1.50;99.90
20068;DHT22;10194;50.824;7.134;2024-01-16T09:32:54;1.60;99.90
20068;DHT22;10194;50.824;7.134;2024-01-16T09:35:19;1.70;99.90
20068;DHT22;10194;50.824;7.134;2024-01-16T09:37:45;1.70;99.90
20068;DHT22;10194;50.824;7.134;2024-01-16T09:40:12;1.80;99.90
20068;DHT22;10194;50.824;7.134;2024-01-16T09:42:39;1.80;99.90
20068;DHT22;10194;50.824;7.134;2024-01-16T09:45:06;1.80;99.90
20068;DHT22;10194;50.824;7.134;2024-01-16T09:47:34;1.90;99.90
20068;DHT22;10194;50.824;7.134;2024-01-16T09:50:01;2.00;99.90
20068;DHT22;10194;50.824;7.134;2024-01-16T09:52:28;2.00;99.90
20068;DHT22;10194;50.824;7.134;2024-01-16T09:54:54;1.90;99.90
20068;DHT22;10194;50.824;7.134;2024-01-16T09:57:24;1.90;99.90
20068;DHT22;10194;50.824;7.134;2024-01-16T09:59:56;1.80;99.90
20068;DHT22;10194;50.824;7.134;2024-01-16T10:02:22;1.90;99.90
20068;DHT22;10194;50.824;7.134;2024-01-16T10:04:49;2.00;99.90
20068;DHT22;10194;50.824;7.134;2024-01-16T10:07:16;2.10;99.90
20068;DHT22;10194;50.824;7.134;2024-01-16T10:09:43;2.20;99.90
20068;DHT22;10194;50.824;7.134;2024-01-16T10:12:10;2.20;99.90
20068;DHT22;10194;50.824;7.134;2024-01-16T10:14:37;2.20;99.90
20068;DHT22;10194;50.824;7.134;2024-01-16T10:17:04;2.20;99.90
20068;DHT22;10194;50.824;7.134;2024-01-16T10:19:31;2.20;99.90
20068;DHT22;10194;50.824;7.134;2024-01-16T10:22:04;2.20;99.90
20068;DHT22;10194;50.824;7.134;2024-01-16T10:24:32;2.20;99.90
20068;DHT22;10194;50.824;7.134;2024-01-16T10:27:01;2.30;99.90
20068;DHT22;10194;50.824;7.134;2024-01-16T10:29:31;2.20;99.90
20068;DHT22;10194;50.824;7.134;2024-01-16T10:31:58;2.20;99.90
20068;DHT22;10194;50.824;7.134;2024-01-16T10:34:27;2.20;99.90
20068;DHT22;10194;50.824;7.134;2024-01-16T10:36:58;2.30;99.90
20068;DHT22;10194;50.824;7.134;2024-01-16T10:39:29;2.30;99.90
20068;DHT22;10194;50.824;7.134;2024-01-16T10:41:58;2.40;99.90
20068;DHT22;10194;50.824;7.134;2024-01-16T10:44:24;2.30;99.90
20068;DHT22;10194;50.824;7.134;2024-01-16T10:47:08;2.40;99.90
20068;DHT22;10194;50.824;7.134;2024-01-16T10:49:36;2.30;99.90
20068;DHT22;10194;50.824;7.134;2024-01-16T10:52:02;2.30;99.90
20068;DHT22;10194;50.824;7.134;2024-01-16T10:54:29;2.40;99.90
20068;DHT22;10194;50.824;7.134;2024-01-16T10:56:57;2.40;99.90
20068;DHT22;10194;50.824;7.134;2024-01-16T10:59:34;2.30;99.90
20068;DHT22;10194;50.824;7.134;2024-01-16T11:02:06;2.20;99.90
20068;DHT22;10194;50.824;7.134;2024-01-16T11:04:36;2.20;99.90
20068;DHT22;10194;50.824;7.134;2024-01-16T11:07:04;2.20;99.90
20068;DHT22;10194;50.824;7.134;2024-01-16T11:09:31;2.20;99.90
20068;DHT22;10194;50.824;7.134;2024-01-16T11:11:57;2.20;99.90
20068;DHT22;10194;50.824;7.134;2024-01-16T11:14:25;2.20;99.90
20068;DHT22;10194;50.824;7.134;2024-01-16T11:16:55;2.20;99.90
20068;DHT22;10194;50.824;7.134;2024-01-16T11:19:22;2.10;99.90
20068;DHT22;10194;50.824;7.134;2024-01-16T11:21:48;2.00;99.90
20068;DHT22;10194;50.824;7.134;2024-01-16T11:24:15;2.10;99.90
20068;DHT22;10194;50.824;7.134;2024-01-16T11:26:41;2.20;99.90
20068;DHT22;10194;50.824;7.134;2024-01-16T11:31:51;2.40;99.90
20068;DHT22;10194;50.824;7.134;2024-01-16T11:37:07;2.40;99.90
20068;DHT22;10194;50.824;7.134;2024-01-16T11:39:34;2.40;99.90
20068;DHT22;10194;50.824;7.134;2024-01-16T11:42:00;2.40;99.90
20068;DHT22;10194;50.824;7.134;2024-01-16T11:44:42;2.40;99.90
20068;DHT22;10194;50.824;7.134;2024-01-16T11:47:20;2.50;99.90
20068;DHT22;10194;50.824;7.134;2024-01-16T11:49:47;2.60;99.90
20068;DHT22;10194;50.824;7.134;2024-01-16T11:55:31;2.30;99.90
20068;DHT22;10194;50.824;7.134;2024-01-16T12:00:57;2.20;99.90
20068;DHT22;10194;50.824;7.134;2024-01-16T12:03:23;2.30;99.90
20068;DHT22;10194;50.824;7.134;2024-01-16T12:05:59;2.40;99.90
20068;DHT22;10194;50.824;7.134;2024-01-16T12:08:27;2.40;99.90
20068;DHT22;10194;50.824;7.134;2024-01-16T12:10:53;2.50;99.90
20068;DHT22;10194;50.824;7.134;2024-01-16T12:13:19;2.70;99.90
20068;DHT22;10194;50.824;7.134;2024-01-16T12:15:45;2.90;99.90
20068;DHT22;10194;50.824;7.134;2024-01-16T12:18:20;3.00;99.90
20068;DHT22;10194;50.824;7.134;2024-01-16T12:20:46;3.00;99.90
20068;DHT22;10194;50.824;7.134;2024-01-16T12:23:13;2.90;99.90
20068;DHT22;10194;50.824;7.134;2024-01-16T12:25:39;3.00;99.90
20068;DHT22;10194;50.824;7.134;2024-01-16T12:28:07;3.00;99.90
20068;DHT22;10194;50.824;7.134;2024-01-16T12:30:37;2.90;99.90
20068;DHT22;10194;50.824;7.134;2024-01-16T12:33:10;2.90;99.90
20068;DHT22;10194;50.824;7.134;2024-01-16T12:35:41;3.00;99.90
20068;DHT22;10194;50.824;7.134;2024-01-16T12:38:09;3.10;99.90
20068;DHT22;10194;50.824;7.134;2024-01-16T12:40:36;3.20;99.90
20068;DHT22;10194;50.824;7.134;2024-01-16T12:43:06;2.90;99.90
20068;DHT22;10194;50.824;7.134;2024-01-16T12:45:34;2.90;99.90
20068;DHT22;10194;50.824;7.134;2024-01-16T12:48:03;3.10;99.90
20068;DHT22;10194;50.824;7.134;2024-01-16T12:50:31;3.30;99.90
20068;DHT22;10194;50.824;7.134;2024-01-16T12:53:08;3.20;99.90
20068;DHT22;10194;50.824;7.134;2024-01-16T12:55:39;3.20;99.90
20068;DHT22;10194;50.824;7.134;2024-01-16T12:58:35;3.00;99.90
20068;DHT22;10194;50.824;7.134;2024-01-16T13:01:26;2.80;99.90
20068;DHT22;10194;50.824;7.134;2024-01-16T13:03:54;2.70;99.90
20068;DHT22;10194;50.824;7.134;2024-01-16T13:06:22;2.50;99.90
20068;DHT22;10194;50.824;7.134;2024-01-16T13:08:49;2.50;99.90
20068;DHT22;10194;50.824;7.134;2024-01-16T13:11:16;2.60;99.90
20068;DHT22;10194;50.824;7.134;2024-01-16T13:13:47;2.60;99.90
20068;DHT22;10194;50.824;7.134;2024-01-16T13:16:17;2.50;99.90
20068;DHT22;10194;50.824;7.134;2024-01-16T13:18:43;2.50;99.90
20068;DHT22;10194;50.824;7.134;2024-01-16T13:21:09;2.30;99.90
20068;DHT22;10194;50.824;7.134;2024-01-16T13:23:35;2.20;99.90
20068;DHT22;10194;50.824;7.134;2024-01-16T13:26:01;2.00;99.90
20068;DHT22;10194;50.824;7.134;2024-01-16T13:28:30;2.00;99.90
20068;DHT22;10194;50.824;7.134;2024-01-16T13:30:56;2.00;99.90
20068;DHT22;10194;50.824;7.134;2024-01-16T13:33:25;2.00;99.90
20068;DHT22;10194;50.824;7.134;2024-01-16T13:35:54;2.00;99.90
20068;DHT22;10194;50.824;7.134;2024-01-16T13:38:20;2.00;99.90
20068;DHT22;10194;50.824;7.134;2024-01-16T13:40:47;2.00;99.90
20068;DHT22;10194;50.824;7.134;2024-01-16T13:43:15;2.10;99.90
20068;DHT22;10194;50.824;7.134;2024-01-16T13:45:41;2.00;99.90
20068;DHT22;10194;50.824;7.134;2024-01-16T13:48:07;2.00;99.90
20068;DHT22;10194;50.824;7.134;2024-01-16T13:50:33;1.90;99.90
20068;DHT22;10194;50.824;7.134;2024-01-16T13:53:00;1.80;99.90
20068;DHT22;10194;50.824;7.134;2024-01-16T13:55:29;1.90;99.90
20068;DHT22;10194;50.824;7.134;2024-01-16T13:57:57;1.80;99.90
20068;DHT22;10194;50.824;7.134;2024-01-16T14:00:24;1.70;99.90
20068;DHT22;10194;50.824;7.134;2024-01-16T14:02:50;1.70;99.90
20068;DHT22;10194;50.824;7.134;2024-01-16T14:05:18;1.70;99.90
20068;DHT22;10194;50.824;7.134;2024-01-16T14:07:44;1.70;99.90
20068;DHT22;10194;50.824;7.134;2024-01-16T14:10:14;1.70;99.90
20068;DHT22;10194;50.824;7.134;2024-01-16T14:12:41;1.70;99.90
20068;DHT22;10194;50.824;7.134;2024-01-16T14:15:15;1.60;99.90
20068;DHT22;10194;50.824;7.134;2024-01-16T14:17:46;1.60;99.90
20068;DHT22;10194;50.824;7.134;2024-01-16T14:20:13;1.50;99.90
20068;DHT22;10194;50.824;7.134;2024-01-16T14:22:40;1.50;99.90
20068;DHT22;10194;50.824;7.134;2024-01-16T14:25:11;1.50;99.90
20068;DHT22;10194;50.824;7.134;2024-01-16T14:27:42;1.70;99.90
20068;DHT22;10194;50.824;7.134;2024-01-16T14:30:17;1.70;99.90
20068;DHT22;10194;50.824;7.134;2024-01-16T14:32:44;1.70;99.90
20068;DHT22;10194;50.824;7.134;2024-01-16T14:35:13;1.70;99.90
20068;DHT22;10194;50.824;7.134;2024-01-16T14:37:40;1.70;99.90
20068;DHT22;10194;50.824;7.134;2024-01-16T14:40:09;1.70;99.90
20068;DHT22;10194;50.824;7.134;2024-01-16T14:42:41;1.70;99.90
20068;DHT22;10194;50.824;7.134;2024-01-16T14:45:16;1.70;99.90
20068;DHT22;10194;50.824;7.134;2024-01-16T14:47:42;1.60;99.90
20068;DHT22;10194;50.824;7.134;2024-01-16T14:50:10;1.50;99.90
20068;DHT22;10194;50.824;7.134;2024-01-16T14:52:38;1.50;99.90
20068;DHT22;10194;50.824;7.134;2024-01-16T14:55:05;1.40;99.90
20068;DHT22;10194;50.824;7.134;2024-01-16T14:57:35;1.40;99.90
20068;DHT22;10194;50.824;7.134;2024-01-16T15:00:13;1.30;99.90
20068;DHT22;10194;50.824;7.134;2024-01-16T15:02:52;1.30;99.90
20068;DHT22;10194;50.824;7.134;2024-01-16T15:05:19;1.20;99.90
20068;DHT22;10194;50.824;7.134;2024-01-16T15:07:47;1.10;99.90
20068;DHT22;10194;50.824;7.134;2024-01-16T15:10:13;1.10;99.90
20068;DHT22;10194;50.824;7.134;2024-01-16T15:12:42;1.10;99.90
20068;DHT22;10194;50.824;7.134;2024-01-16T15:15:13;1.10;99.90
20068;DHT22;10194;50.824;7.134;2024-01-16T15:17:40;1.00;99.90
20068;DHT22;10194;50.824;7.134;2024-01-16T15:20:08;1.00;99.90
20068;DHT22;10194;50.824;7.134;2024-01-16T15:22:41;0.90;99.90
20068;DHT22;10194;50.824;7.134;2024-01-16T15:25:09;0.80;99.90
20068;DHT22;10194;50.824;7.134;2024-01-16T15:27:36;0.80;99.90
20068;DHT22;10194;50.824;7.134;2024-01-16T15:30:03;0.70;99.90
20068;DHT22;10194;50.824;7.134;2024-01-16T15:32:30;0.70;99.90
20068;DHT22;10194;50.824;7.134;2024-01-16T15:34:57;0.60;99.90
20068;DHT22;10194;50.824;7.134;2024-01-16T15:37:23;0.60;99.90
20068;DHT22;10194;50.824;7.134;2024-01-16T15:39:48;0.50;99.90
20068;DHT22;10194;50.824;7.134;2024-01-16T15:42:14;0.40;99.90
20068;DHT22;10194;50.824;7.134;2024-01-16T15:44:40;0.40;99.90
20068;DHT22;10194;50.824;7.134;2024-01-16T15:47:06;0.30;99.90
20068;DHT22;10194;50.824;7.134;2024-01-16T15:49:32;0.20;99.90
20068;DHT22;10194;50.824;7.134;2024-01-16T15:51:58;0.20;99.90
20068;DHT22;10194;50.824;7.134;2024-01-16T15:54:30;0.10;99.90
20068;DHT22;10194;50.824;7.134;2024-01-16T15:56:56;0.00;99.90
20068;DHT22;10194;50.824;7.134;2024-01-16T15:59:23;-0.10;99.90